sensor_id;sensor_type;location;lat;lon;timestamp;pressure;altitude;pressure_sealevel;temperature
17716;BMP280;50159;49.426;11.182;2022-12-07T00:01:37;97699.91;;;3.65
17716;BMP280;50159;49.426;11.182;2022-12-07T00:04:11;97689.63;;;3.65
17716;BMP280;50159;49.426;11.182;2022-12-07T00:06:42;97697.19;;;3.68
17716;BMP280;50159;49.426;11.182;2022-12-07T00:09:16;97693.78;;;3.67
17716;BMP280;50159;49.426;11.182;2022-12-07T00:11:44;97694.59;;;3.68
17716;BMP280;50159;49.426;11.182;2022-12-07T00:14:16;97694.44;;;3.71
17716;BMP280;50159;49.426;11.182;2022-12-07T00:16:44;97697.09;;;3.69
17716;BMP280;50159;49.426;11.182;2022-12-07T00:19:13;97681.59;;;3.71
17716;BMP280;50159;49.426;11.182;2022-12-07T00:21:40;97686.72;;;3.71
17716;BMP280;50159;49.426;11.182;2022-12-07T00:24:08;97682.50;;;3.70
17716;BMP280;50159;49.426;11.182;2022-12-07T00:26:38;97674.69;;;3.71
17716;BMP280;50159;49.426;11.182;2022-12-07T00:29:13;97682.50;;;3.70
17716;BMP280;50159;49.426;11.182;2022-12-07T00:31:41;97689.47;;;3.68
17716;BMP280;50159;49.426;11.182;2022-12-07T00:34:14;97674.94;;;3.67
17716;BMP280;50159;49.426;11.182;2022-12-07T00:36:41;97674.94;;;3.67
17716;BMP280;50159;49.426;11.182;2022-12-07T00:39:08;97668.91;;;3.68
17716;BMP280;50159;49.426;11.182;2022-12-07T00:41:35;97673.22;;;3.67
17716;BMP280;50159;49.426;11.182;2022-12-07T00:44:02;97669.06;;;3.65
17716;BMP280;50159;49.426;11.182;2022-12-07T00:46:29;97676.78;;;3.65
17716;BMP280;50159;49.426;11.182;2022-12-07T00:48:56;97669.06;;;3.65
17716;BMP280;50159;49.426;11.182;2022-12-07T00:51:24;97675.94;;;3.64
17716;BMP280;50159;49.426;11.182;2022-12-07T00:53:52;97687.13;;;3.63
17716;BMP280;50159;49.426;11.182;2022-12-07T00:56:25;97687.13;;;3.63
17716;BMP280;50159;49.426;11.182;2022-12-07T00:59:01;97687.97;;;3.64
17716;BMP280;50159;49.426;11.182;2022-12-07T01:01:35;97687.13;;;3.63
17716;BMP280;50159;49.426;11.182;2022-12-07T01:04:03;97687.97;;;3.64
17716;BMP280;50159;49.426;11.182;2022-12-07T01:06:30;97685.41;;;3.64
17716;BMP280;50159;49.426;11.182;2022-12-07T01:08:58;97696.44;;;3.66
17716;BMP280;50159;49.426;11.182;2022-12-07T01:11:28;97678.44;;;3.66
17716;BMP280;50159;49.426;11.182;2022-12-07T01:13:58;97692.03;;;3.68
17716;BMP280;50159;49.426;11.182;2022-12-07T01:16:28;97687.81;;;3.67
17716;BMP280;50159;49.426;11.182;2022-12-07T01:18:57;97686.28;;;3.63
17716;BMP280;50159;49.426;11.182;2022-12-07T01:21:34;97686.28;;;3.63
17716;BMP280;50159;49.426;11.182;2022-12-07T01:24:05;97689.75;;;3.62
17716;BMP280;50159;49.426;11.182;2022-12-07T01:26:32;97683.88;;;3.60
17716;BMP280;50159;49.426;11.182;2022-12-07T01:28:59;97693.25;;;3.61
17716;BMP280;50159;49.426;11.182;2022-12-07T01:31:28;97694.06;;;3.61
17716;BMP280;50159;49.426;11.182;2022-12-07T01:33:58;97691.41;;;3.63
17716;BMP280;50159;49.426;11.182;2022-12-07T01:36:32;97687.13;;;3.63
17716;BMP280;50159;49.426;11.182;2022-12-07T01:39:04;97698.25;;;3.64
17716;BMP280;50159;49.426;11.182;2022-12-07T01:41:36;97695.72;;;3.62
17716;BMP280;50159;49.426;11.182;2022-12-07T01:44:31;97696.66;;;3.61
17716;BMP280;50159;49.426;11.182;2022-12-07T01:47:02;97693.31;;;3.59
17716;BMP280;50159;49.426;11.182;2022-12-07T01:49:48;97690.91;;;3.57
17716;BMP280;50159;49.426;11.182;2022-12-07T01:52:33;97691.06;;;3.54
17716;BMP280;50159;49.426;11.182;2022-12-07T01:55:08;97684.13;;;3.56
17716;BMP280;50159;49.426;11.182;2022-12-07T01:57:40;97688.44;;;3.55
17716;BMP280;50159;49.426;11.182;2022-12-07T02:00:12;97690.25;;;3.53
17716;BMP280;50159;49.426;11.182;2022-12-07T02:02:49;97694.47;;;3.54
17716;BMP280;50159;49.426;11.182;2022-12-07T02:05:18;97683.44;;;3.52
17716;BMP280;50159;49.426;11.182;2022-12-07T02:07:47;97681.78;;;3.51
17716;BMP280;50159;49.426;11.182;2022-12-07T02:10:28;97681.78;;;3.51
17716;BMP280;50159;49.426;11.182;2022-12-07T02:13:04;97679.06;;;3.54
17716;BMP280;50159;49.426;11.182;2022-12-07T02:15:56;97683.28;;;3.55
17716;BMP280;50159;49.426;11.182;2022-12-07T02:21:51;97674.66;;;3.56
17716;BMP280;50159;49.426;11.182;2022-12-07T02:30:15;97687.06;;;3.48
17716;BMP280;50159;49.426;11.182;2022-12-07T02:35:31;97677.53;;;3.50
17716;BMP280;50159;49.426;11.182;2022-12-07T02:43:47;97678.44;;;3.49
17716;BMP280;50159;49.426;11.182;2022-12-07T02:46:23;97678.59;;;3.46
17716;BMP280;50159;49.426;11.182;2022-12-07T02:48:54;97676.03;;;3.46
17716;BMP280;50159;49.426;11.182;2022-12-07T02:51:30;97669.97;;;3.47
17716;BMP280;50159;49.426;11.182;2022-12-07T02:53:56;97664.09;;;3.45
17716;BMP280;50159;49.426;11.182;2022-12-07T03:10:59;97659.84;;;3.44
17716;BMP280;50159;49.426;11.182;2022-12-07T03:13:54;97649.00;;;3.39
17716;BMP280;50159;49.426;11.182;2022-12-07T03:16:31;97645.72;;;3.36
17716;BMP280;50159;49.426;11.182;2022-12-07T03:19:07;97657.00;;;3.34
17716;BMP280;50159;49.426;11.182;2022-12-07T03:21:41;97642.63;;;3.30
17716;BMP280;50159;49.426;11.182;2022-12-07T03:24:23;97631.75;;;3.25
17716;BMP280;50159;49.426;11.182;2022-12-07T03:27:01;97630.25;;;3.21
17716;BMP280;50159;49.426;11.182;2022-12-07T03:32:50;97628.19;;;3.11
17716;BMP280;50159;49.426;11.182;2022-12-07T03:35:27;97625.72;;;3.09
17716;BMP280;50159;49.426;11.182;2022-12-07T03:38:23;97627.53;;;3.07
17716;BMP280;50159;49.426;11.182;2022-12-07T03:41:05;97630.25;;;3.04
17716;BMP280;50159;49.426;11.182;2022-12-07T03:43:36;97628.53;;;3.05
17716;BMP280;50159;49.426;11.182;2022-12-07T03:46:17;97627.63;;;3.06
17716;BMP280;50159;49.426;11.182;2022-12-07T03:49:14;97618.09;;;3.08
17716;BMP280;50159;49.426;11.182;2022-12-07T03:52:26;97613.78;;;3.08
17716;BMP280;50159;49.426;11.182;2022-12-07T03:55:32;97606.25;;;3.05
17716;BMP280;50159;49.426;11.182;2022-12-07T03:58:09;97613.41;;;2.99
17716;BMP280;50159;49.426;11.182;2022-12-07T04:00:37;97610.09;;;2.97
17716;BMP280;50159;49.426;11.182;2022-12-07T04:03:04;97611.22;;;2.91
17716;BMP280;50159;49.426;11.182;2022-12-07T04:05:31;97608.13;;;2.85
17716;BMP280;50159;49.426;11.182;2022-12-07T04:07:58;97609.34;;;2.78
17716;BMP280;50159;49.426;11.182;2022-12-07T04:10:25;97602.91;;;2.70
17716;BMP280;50159;49.426;11.182;2022-12-07T04:12:52;97622.94;;;2.64
17716;BMP280;50159;49.426;11.182;2022-12-07T04:15:19;97612.25;;;2.54
17716;BMP280;50159;49.426;11.182;2022-12-07T04:17:45;97615.19;;;2.47
17716;BMP280;50159;49.426;11.182;2022-12-07T04:20:12;97611.34;;;2.39
17716;BMP280;50159;49.426;11.182;2022-12-07T04:22:39;97609.03;;;2.33
17716;BMP280;50159;49.426;11.182;2022-12-07T04:25:06;97619.69;;;2.25
17716;BMP280;50159;49.426;11.182;2022-12-07T04:27:33;97608.78;;;2.21
17716;BMP280;50159;49.426;11.182;2022-12-07T04:30:00;97614.28;;;2.13
17716;BMP280;50159;49.426;11.182;2022-12-07T04:32:28;97610.34;;;2.06
17716;BMP280;50159;49.426;11.182;2022-12-07T04:34:54;97611.50;;;2.00
17716;BMP280;50159;49.426;11.182;2022-12-07T04:37:22;97611.78;;;1.94
17716;BMP280;50159;49.426;11.182;2022-12-07T04:39:50;97617.06;;;1.91
17716;BMP280;50159;49.426;11.182;2022-12-07T04:42:16;97607.84;;;1.87
17716;BMP280;50159;49.426;11.182;2022-12-07T04:44:43;97618.22;;;1.84
17716;BMP280;50159;49.426;11.182;2022-12-07T04:47:11;97621.56;;;1.86
17716;BMP280;50159;49.426;11.182;2022-12-07T04:49:38;97617.34;;;1.85
17716;BMP280;50159;49.426;11.182;2022-12-07T04:52:04;97619.13;;;1.83
17716;BMP280;50159;49.426;11.182;2022-12-07T04:54:31;97621.69;;;1.83
17716;BMP280;50159;49.426;11.182;2022-12-07T04:56:58;97631.81;;;1.86
17716;BMP280;50159;49.426;11.182;2022-12-07T04:59:25;97618.09;;;1.87
17716;BMP280;50159;49.426;11.182;2022-12-07T05:01:52;97628.34;;;1.87
17716;BMP280;50159;49.426;11.182;2022-12-07T05:04:18;97631.69;;;1.89
17716;BMP280;50159;49.426;11.182;2022-12-07T05:06:45;97641.97;;;1.89
17716;BMP280;50159;49.426;11.182;2022-12-07T05:09:12;97641.81;;;1.92
17716;BMP280;50159;49.426;11.182;2022-12-07T05:11:39;97640.00;;;1.94
17716;BMP280;50159;49.426;11.182;2022-12-07T05:14:17;97631.25;;;1.98
17716;BMP280;50159;49.426;11.182;2022-12-07T05:16:47;97630.28;;;2.00
17716;BMP280;50159;49.426;11.182;2022-12-07T05:19:18;97636.13;;;2.03
17716;BMP280;50159;49.426;11.182;2022-12-07T05:21:45;97624.81;;;2.07
17716;BMP280;50159;49.426;11.182;2022-12-07T05:24:14;97619.63;;;2.09
17716;BMP280;50159;49.426;11.182;2022-12-07T05:26:42;97621.28;;;2.10
17716;BMP280;50159;49.426;11.182;2022-12-07T05:29:16;97624.59;;;2.12
17716;BMP280;50159;49.426;11.182;2022-12-07T05:31:43;97615.16;;;2.12
17716;BMP280;50159;49.426;11.182;2022-12-07T05:34:11;97628.78;;;2.14
17716;BMP280;50159;49.426;11.182;2022-12-07T05:36:38;97614.28;;;2.13
17716;BMP280;50159;49.426;11.182;2022-12-07T05:39:05;97618.50;;;2.14
17716;BMP280;50159;49.426;11.182;2022-12-07T05:41:31;97623.56;;;2.16
17716;BMP280;50159;49.426;11.182;2022-12-07T05:44:16;97622.75;;;2.15
17716;BMP280;50159;49.426;11.182;2022-12-07T05:46:43;97626.06;;;2.17
17716;BMP280;50159;49.426;11.182;2022-12-07T05:49:10;97636.25;;;2.19
17716;BMP280;50159;49.426;11.182;2022-12-07T05:51:37;97631.81;;;2.22
17716;BMP280;50159;49.426;11.182;2022-12-07T05:54:04;97622.28;;;2.24
17716;BMP280;50159;49.426;11.182;2022-12-07T05:56:30;97621.53;;;2.22
17716;BMP280;50159;49.426;11.182;2022-12-07T05:58:57;97629.09;;;2.25
17716;BMP280;50159;49.426;11.182;2022-12-07T06:01:42;97625.69;;;2.24
17716;BMP280;50159;49.426;11.182;2022-12-07T06:04:09;97628.22;;;2.26
17716;BMP280;50159;49.426;11.182;2022-12-07T06:06:36;97635.69;;;2.30
17716;BMP280;50159;49.426;11.182;2022-12-07T06:09:03;97634.56;;;2.36
17716;BMP280;50159;49.426;11.182;2022-12-07T06:11:30;97623.38;;;2.37
17716;BMP280;50159;49.426;11.182;2022-12-07T06:14:15;97622.47;;;2.38
17716;BMP280;50159;49.426;11.182;2022-12-07T06:16:42;97629.31;;;2.39
17716;BMP280;50159;49.426;11.182;2022-12-07T06:19:14;97624.09;;;2.40
17716;BMP280;50159;49.426;11.182;2022-12-07T06:21:41;97620.63;;;2.41
17716;BMP280;50159;49.426;11.182;2022-12-07T06:24:12;97618.81;;;2.43
17716;BMP280;50159;49.426;11.182;2022-12-07T06:26:39;97620.38;;;2.45
17716;BMP280;50159;49.426;11.182;2022-12-07T06:29:07;97617.81;;;2.45
17716;BMP280;50159;49.426;11.182;2022-12-07T06:31:36;97621.28;;;2.45
17716;BMP280;50159;49.426;11.182;2022-12-07T06:34:06;97618.88;;;2.42
17716;BMP280;50159;49.426;11.182;2022-12-07T06:36:35;97631.06;;;2.37
17716;BMP280;50159;49.426;11.182;2022-12-07T06:39:04;97630.97;;;2.40
17716;BMP280;50159;49.426;11.182;2022-12-07T06:41:31;97634.28;;;2.42
17716;BMP280;50159;49.426;11.182;2022-12-07T06:43:58;97632.41;;;2.45
17716;BMP280;50159;49.426;11.182;2022-12-07T06:46:25;97630.56;;;2.47
17716;BMP280;50159;49.426;11.182;2022-12-07T06:48:52;97629.66;;;2.48
17716;BMP280;50159;49.426;11.182;2022-12-07T06:51:19;97633.00;;;2.50
17716;BMP280;50159;49.426;11.182;2022-12-07T06:53:46;97633.00;;;2.50
17716;BMP280;50159;49.426;11.182;2022-12-07T06:56:13;97616.75;;;2.49
17716;BMP280;50159;49.426;11.182;2022-12-07T06:58:40;97629.75;;;2.46
17716;BMP280;50159;49.426;11.182;2022-12-07T07:01:13;97626.59;;;2.42
17716;BMP280;50159;49.426;11.182;2022-12-07T07:03:40;97630.81;;;2.43
17716;BMP280;50159;49.426;11.182;2022-12-07T07:06:08;97637.38;;;2.48
17716;BMP280;50159;49.426;11.182;2022-12-07T07:08:37;97631.97;;;2.54
17716;BMP280;50159;49.426;11.182;2022-12-07T07:11:05;97631.72;;;2.58
17716;BMP280;50159;49.426;11.182;2022-12-07T07:13:32;97637.63;;;2.60
17716;BMP280;50159;49.426;11.182;2022-12-07T07:16:00;97633.41;;;2.59
17716;BMP280;50159;49.426;11.182;2022-12-07T07:18:27;97640.34;;;2.57
17716;BMP280;50159;49.426;11.182;2022-12-07T07:20:55;97643.00;;;2.56
17716;BMP280;50159;49.426;11.182;2022-12-07T07:23:23;97643.88;;;2.55
17716;BMP280;50159;49.426;11.182;2022-12-07T07:25:50;97642.31;;;2.52
17716;BMP280;50159;49.426;11.182;2022-12-07T07:28:17;97645.78;;;2.51
17716;BMP280;50159;49.426;11.182;2022-12-07T07:30:44;97649.09;;;2.53
17716;BMP280;50159;49.426;11.182;2022-12-07T07:33:12;97643.81;;;2.56
17716;BMP280;50159;49.426;11.182;2022-12-07T07:35:39;97642.75;;;2.60
17716;BMP280;50159;49.426;11.182;2022-12-07T07:38:07;97642.75;;;2.60
17716;BMP280;50159;49.426;11.182;2022-12-07T07:40:34;97644.41;;;2.61
17716;BMP280;50159;49.426;11.182;2022-12-07T07:43:01;97643.47;;;2.64
17716;BMP280;50159;49.426;11.182;2022-12-07T07:45:28;97641.56;;;2.67
17716;BMP280;50159;49.426;11.182;2022-12-07T07:47:55;97639.91;;;2.66
17716;BMP280;50159;49.426;11.182;2022-12-07T07:50:22;97642.47;;;2.66
17716;BMP280;50159;49.426;11.182;2022-12-07T07:52:49;97645.19;;;2.63
17716;BMP280;50159;49.426;11.182;2022-12-07T07:55:16;97645.03;;;2.66
17716;BMP280;50159;49.426;11.182;2022-12-07T07:57:43;97649.88;;;2.72
17716;BMP280;50159;49.426;11.182;2022-12-07T08:00:16;97658.06;;;2.80
17716;BMP280;50159;49.426;11.182;2022-12-07T08:02:43;97650.19;;;2.83
17716;BMP280;50159;49.426;11.182;2022-12-07T08:05:12;97657.00;;;2.84
17716;BMP280;50159;49.426;11.182;2022-12-07T08:07:39;97657.91;;;2.83
17716;BMP280;50159;49.426;11.182;2022-12-07T08:10:08;97647.78;;;2.80
17716;BMP280;50159;49.426;11.182;2022-12-07T08:12:39;97647.22;;;2.73
17716;BMP280;50159;49.426;11.182;2022-12-07T08:15:30;97650.63;;;2.74
17716;BMP280;50159;49.426;11.182;2022-12-07T08:17:58;97652.38;;;2.73
17716;BMP280;50159;49.426;11.182;2022-12-07T08:20:25;97657.41;;;2.75
17716;BMP280;50159;49.426;11.182;2022-12-07T08:22:52;97659.72;;;2.81
17716;BMP280;50159;49.426;11.182;2022-12-07T08:25:19;97661.38;;;2.82
17716;BMP280;50159;49.426;11.182;2022-12-07T08:27:48;97657.00;;;2.84
17716;BMP280;50159;49.426;11.182;2022-12-07T08:30:15;97661.97;;;2.87
17716;BMP280;50159;49.426;11.182;2022-12-07T08:32:44;97666.91;;;2.91
17716;BMP280;50159;49.426;11.182;2022-12-07T08:35:11;97660.78;;;2.93
17716;BMP280;50159;49.426;11.182;2022-12-07T08:37:39;97652.91;;;2.96
17716;BMP280;50159;49.426;11.182;2022-12-07T08:40:08;97658.81;;;2.98
17716;BMP280;50159;49.426;11.182;2022-12-07T08:42:35;97656.88;;;3.03
17716;BMP280;50159;49.426;11.182;2022-12-07T08:45:13;97656.72;;;3.06
17716;BMP280;50159;49.426;11.182;2022-12-07T08:47:55;97646.13;;;3.12
17716;BMP280;50159;49.426;11.182;2022-12-07T08:50:23;97644.09;;;3.18
17716;BMP280;50159;49.426;11.182;2022-12-07T08:52:57;97645.38;;;3.27
17716;BMP280;50159;49.426;11.182;2022-12-07T08:55:26;97648.53;;;3.32
17716;BMP280;50159;49.426;11.182;2022-12-07T08:57:54;97658.50;;;3.37
17716;BMP280;50159;49.426;11.182;2022-12-07T09:00:21;97650.56;;;3.42
17716;BMP280;50159;49.426;11.182;2022-12-07T09:02:48;97652.06;;;3.46
17716;BMP280;50159;49.426;11.182;2022-12-07T09:05:15;97639.13;;;3.47
17716;BMP280;50159;49.426;11.182;2022-12-07T09:07:51;97650.09;;;3.51
17716;BMP280;50159;49.426;11.182;2022-12-07T09:10:19;97647.38;;;3.54
17716;BMP280;50159;49.426;11.182;2022-12-07T09:12:45;97650.78;;;3.54
17716;BMP280;50159;49.426;11.182;2022-12-07T09:15:12;97656.75;;;3.55
17716;BMP280;50159;49.426;11.182;2022-12-07T09:17:39;97652.44;;;3.55
17716;BMP280;50159;49.426;11.182;2022-12-07T09:20:06;97655.91;;;3.54
17716;BMP280;50159;49.426;11.182;2022-12-07T09:22:33;97661.81;;;3.56
17716;BMP280;50159;49.426;11.182;2022-12-07T09:25:03;97660.88;;;3.57
17716;BMP280;50159;49.426;11.182;2022-12-07T09:27:31;97663.28;;;3.60
17716;BMP280;50159;49.426;11.182;2022-12-07T09:29:58;97664.97;;;3.61
17716;BMP280;50159;49.426;11.182;2022-12-07T09:32:25;97661.56;;;3.60
17716;BMP280;50159;49.426;11.182;2022-12-07T09:34:51;97662.38;;;3.61
17716;BMP280;50159;49.426;11.182;2022-12-07T09:37:18;97666.63;;;3.62
17716;BMP280;50159;49.426;11.182;2022-12-07T09:39:45;97662.38;;;3.61
17716;BMP280;50159;49.426;11.182;2022-12-07T09:42:36;97664.88;;;3.62
17716;BMP280;50159;49.426;11.182;2022-12-07T09:45:07;97656.13;;;3.66
17716;BMP280;50159;49.426;11.182;2022-12-07T09:47:38;97662.16;;;3.65
17716;BMP280;50159;49.426;11.182;2022-12-07T09:50:13;97656.13;;;3.66
17716;BMP280;50159;49.426;11.182;2022-12-07T09:52:43;97650.16;;;3.66
17716;BMP280;50159;49.426;11.182;2022-12-07T09:55:14;97657.78;;;3.67
17716;BMP280;50159;49.426;11.182;2022-12-07T09:57:42;97654.97;;;3.72
17716;BMP280;50159;49.426;11.182;2022-12-07T10:00:16;97653.13;;;3.74
17716;BMP280;50159;49.426;11.182;2022-12-07T10:03:00;97651.47;;;3.73
17716;BMP280;50159;49.426;11.182;2022-12-07T10:05:50;97647.16;;;3.73
17716;BMP280;50159;49.426;11.182;2022-12-07T10:08:18;97648.00;;;3.74
17716;BMP280;50159;49.426;11.182;2022-12-07T10:10:51;97654.78;;;3.75
17716;BMP280;50159;49.426;11.182;2022-12-07T10:13:49;97644.50;;;3.75
17716;BMP280;50159;49.426;11.182;2022-12-07T10:16:40;97639.34;;;3.75
17716;BMP280;50159;49.426;11.182;2022-12-07T10:19:27;97634.22;;;3.75
17716;BMP280;50159;49.426;11.182;2022-12-07T10:22:10;97642.84;;;3.74
17716;BMP280;50159;49.426;11.182;2022-12-07T10:24:39;97629.75;;;3.78
17716;BMP280;50159;49.426;11.182;2022-12-07T10:27:26;97632.25;;;3.79
17716;BMP280;50159;49.426;11.182;2022-12-07T10:29:58;97631.44;;;3.79
17716;BMP280;50159;49.426;11.182;2022-12-07T10:32:33;97621.97;;;3.79
17716;BMP280;50159;49.426;11.182;2022-12-07T10:35:29;97620.13;;;3.81
17716;BMP280;50159;49.426;11.182;2022-12-07T10:37:59;97615.75;;;3.83
17716;BMP280;50159;49.426;11.182;2022-12-07T10:40:30;97614.66;;;3.87
17716;BMP280;50159;49.426;11.182;2022-12-07T10:46:23;97602.41;;;3.92
17716;BMP280;50159;49.426;11.182;2022-12-07T10:52:00;97606.38;;;3.98
17716;BMP280;50159;49.426;11.182;2022-12-07T11:06:21;97598.25;;;4.05
17716;BMP280;50159;49.426;11.182;2022-12-07T11:15:33;97594.50;;;4.10
17716;BMP280;50159;49.426;11.182;2022-12-07T11:18:16;97591.78;;;4.13
17716;BMP280;50159;49.426;11.182;2022-12-07T11:21:26;97587.47;;;4.14
17716;BMP280;50159;49.426;11.182;2022-12-07T11:24:09;97589.88;;;4.17
17716;BMP280;50159;49.426;11.182;2022-12-07T11:27:14;97582.97;;;4.17
17716;BMP280;50159;49.426;11.182;2022-12-07T11:33:19;97581.81;;;4.23
17716;BMP280;50159;49.426;11.182;2022-12-07T11:36:10;97583.47;;;4.23
17716;BMP280;50159;49.426;11.182;2022-12-07T11:38:55;97580.16;;;4.22
17716;BMP280;50159;49.426;11.182;2022-12-07T11:41:35;97579.22;;;4.23
17716;BMP280;50159;49.426;11.182;2022-12-07T11:44:20;97582.50;;;4.26
17716;BMP280;50159;49.426;11.182;2022-12-07T11:47:11;97573.75;;;4.28
17716;BMP280;50159;49.426;11.182;2022-12-07T11:52:43;97570.28;;;4.29
17716;BMP280;50159;49.426;11.182;2022-12-07T11:55:39;97571.00;;;4.31
17716;BMP280;50159;49.426;11.182;2022-12-07T12:06:43;97559.06;;;4.30
17716;BMP280;50159;49.426;11.182;2022-12-07T12:09:28;97549.69;;;4.29
17716;BMP280;50159;49.426;11.182;2022-12-07T12:12:34;97555.75;;;4.28
17716;BMP280;50159;49.426;11.182;2022-12-07T12:15:31;97554.91;;;4.28
17716;BMP280;50159;49.426;11.182;2022-12-07T12:21:01;97556.47;;;4.30
17716;BMP280;50159;49.426;11.182;2022-12-07T12:23:43;97553.91;;;4.30
17716;BMP280;50159;49.426;11.182;2022-12-07T12:26:21;97539.94;;;4.34
17716;BMP280;50159;49.426;11.182;2022-12-07T12:28:55;97538.38;;;4.32
17716;BMP280;50159;49.426;11.182;2022-12-07T12:33:52;97530.00;;;4.28
17716;BMP280;50159;49.426;11.182;2022-12-07T12:39:14;97538.38;;;4.32
17716;BMP280;50159;49.426;11.182;2022-12-07T12:47:51;97521.00;;;4.35
17716;BMP280;50159;49.426;11.182;2022-12-07T12:52:55;97521.84;;;4.36
17716;BMP280;50159;49.426;11.182;2022-12-07T12:56:23;97519.16;;;4.37
17716;BMP280;50159;49.426;11.182;2022-12-07T13:01:48;97515.03;;;4.35
17716;BMP280;50159;49.426;11.182;2022-12-07T13:04:34;97510.63;;;4.37
17716;BMP280;50159;49.426;11.182;2022-12-07T13:07:01;97518.44;;;4.35
17716;BMP280;50159;49.426;11.182;2022-12-07T13:09:34;97510.69;;;4.35
17716;BMP280;50159;49.426;11.182;2022-12-07T13:12:13;97518.50;;;4.34
17716;BMP280;50159;49.426;11.182;2022-12-07T13:14:55;97515.22;;;4.32
17716;BMP280;50159;49.426;11.182;2022-12-07T13:20:00;97506.47;;;4.34
17716;BMP280;50159;49.426;11.182;2022-12-07T13:28:10;97499.66;;;4.33
17716;BMP280;50159;49.426;11.182;2022-12-07T13:31:00;97498.00;;;4.32
17716;BMP280;50159;49.426;11.182;2022-12-07T13:33:30;97501.41;;;4.33
17716;BMP280;50159;49.426;11.182;2022-12-07T13:35:57;97504.09;;;4.31
17716;BMP280;50159;49.426;11.182;2022-12-07T13:38:33;97510.06;;;4.32
17716;BMP280;50159;49.426;11.182;2022-12-07T13:41:21;97505.91;;;4.29
17716;BMP280;50159;49.426;11.182;2022-12-07T13:44:03;97501.69;;;4.28
17716;BMP280;50159;49.426;11.182;2022-12-07T13:46:52;97505.75;;;4.32
17716;BMP280;50159;49.426;11.182;2022-12-07T13:49:29;97506.66;;;4.31
17716;BMP280;50159;49.426;11.182;2022-12-07T13:57:35;97500.84;;;4.28
17716;BMP280;50159;49.426;11.182;2022-12-07T14:00:15;97511.06;;;4.29
17716;BMP280;50159;49.426;11.182;2022-12-07T14:02:59;97516.22;;;4.29
17716;BMP280;50159;49.426;11.182;2022-12-07T14:05:29;97517.03;;;4.30
17716;BMP280;50159;49.426;11.182;2022-12-07T14:08:44;97519.72;;;4.28
17716;BMP280;50159;49.426;11.182;2022-12-07T14:13:38;97525.88;;;4.26
17716;BMP280;50159;49.426;11.182;2022-12-07T14:16:34;97526.91;;;4.22
17716;BMP280;50159;49.426;11.182;2022-12-07T14:19:06;97522.78;;;4.20
17716;BMP280;50159;49.426;11.182;2022-12-07T14:22:08;97522.59;;;4.23
17716;BMP280;50159;49.426;11.182;2022-12-07T14:24:44;97515.88;;;4.20
17716;BMP280;50159;49.426;11.182;2022-12-07T14:27:23;97517.47;;;4.23
17716;BMP280;50159;49.426;11.182;2022-12-07T14:29:52;97511.41;;;4.23
17716;BMP280;50159;49.426;11.182;2022-12-07T14:32:26;97514.06;;;4.22
17716;BMP280;50159;49.426;11.182;2022-12-07T14:35:09;97514.88;;;4.23
17716;BMP280;50159;49.426;11.182;2022-12-07T14:37:38;97510.66;;;4.22
17716;BMP280;50159;49.426;11.182;2022-12-07T14:40:07;97509.91;;;4.20
17716;BMP280;50159;49.426;11.182;2022-12-07T14:42:35;97505.59;;;4.20
17716;BMP280;50159;49.426;11.182;2022-12-07T14:45:02;97503.84;;;4.21
17716;BMP280;50159;49.426;11.182;2022-12-07T14:47:29;97491.06;;;4.19
17716;BMP280;50159;49.426;11.182;2022-12-07T14:50:19;97497.97;;;4.19
17716;BMP280;50159;49.426;11.182;2022-12-07T14:52:54;97496.31;;;4.18
17716;BMP280;50159;49.426;11.182;2022-12-07T14:55:41;97498.06;;;4.17
17716;BMP280;50159;49.426;11.182;2022-12-07T14:58:15;97497.97;;;4.19
17716;BMP280;50159;49.426;11.182;2022-12-07T15:00:42;97489.50;;;4.17
17716;BMP280;50159;49.426;11.182;2022-12-07T15:03:10;97486.19;;;4.15
17716;BMP280;50159;49.426;11.182;2022-12-07T15:05:37;97489.59;;;4.15
17716;BMP280;50159;49.426;11.182;2022-12-07T15:08:04;97492.91;;;4.17
17716;BMP280;50159;49.426;11.182;2022-12-07T15:10:33;97489.50;;;4.17
17716;BMP280;50159;49.426;11.182;2022-12-07T15:13:02;97485.09;;;4.19
17716;BMP280;50159;49.426;11.182;2022-12-07T15:15:50;97482.34;;;4.22
17716;BMP280;50159;49.426;11.182;2022-12-07T15:18:19;97481.41;;;4.23
17716;BMP280;50159;49.426;11.182;2022-12-07T15:20:46;97491.63;;;4.24
17716;BMP280;50159;49.426;11.182;2022-12-07T15:23:14;97489.97;;;4.23
17716;BMP280;50159;49.426;11.182;2022-12-07T15:25:45;97484.28;;;4.18
17716;BMP280;50159;49.426;11.182;2022-12-07T15:28:12;97489.59;;;4.15
17716;BMP280;50159;49.426;11.182;2022-12-07T15:30:41;97480.38;;;4.11
17716;BMP280;50159;49.426;11.182;2022-12-07T15:33:13;97480.72;;;4.05
17716;BMP280;50159;49.426;11.182;2022-12-07T15:35:44;97481.00;;;4.01
17716;BMP280;50159;49.426;11.182;2022-12-07T15:38:12;97490.50;;;3.99
17716;BMP280;50159;49.426;11.182;2022-12-07T15:40:39;97490.59;;;3.98
17716;BMP280;50159;49.426;11.182;2022-12-07T15:43:09;97478.75;;;3.95
17716;BMP280;50159;49.426;11.182;2022-12-07T15:45:56;97487.38;;;3.94
17716;BMP280;50159;49.426;11.182;2022-12-07T15:48:23;97477.91;;;3.95
17716;BMP280;50159;49.426;11.182;2022-12-07T15:51:05;97480.41;;;3.96
17716;BMP280;50159;49.426;11.182;2022-12-07T15:53:33;97481.13;;;3.98
17716;BMP280;50159;49.426;11.182;2022-12-07T15:56:00;97473.31;;;4.00
17716;BMP280;50159;49.426;11.182;2022-12-07T15:58:27;97478.56;;;3.98
17716;BMP280;50159;49.426;11.182;2022-12-07T16:00:54;97471.66;;;3.99
17716;BMP280;50159;49.426;11.182;2022-12-07T16:03:21;97472.59;;;3.98
17716;BMP280;50159;49.426;11.182;2022-12-07T16:05:52;97472.69;;;3.96
17716;BMP280;50159;49.426;11.182;2022-12-07T16:08:19;97480.56;;;3.93
17716;BMP280;50159;49.426;11.182;2022-12-07T16:10:46;97473.78;;;3.92
17716;BMP280;50159;49.426;11.182;2022-12-07T16:13:13;97466.06;;;3.92
17716;BMP280;50159;49.426;11.182;2022-12-07T16:15:41;97475.59;;;3.90
17716;BMP280;50159;49.426;11.182;2022-12-07T16:18:08;97479.84;;;3.91
17716;BMP280;50159;49.426;11.182;2022-12-07T16:20:35;97476.16;;;3.95
17716;BMP280;50159;49.426;11.182;2022-12-07T16:23:02;97465.13;;;3.93
17716;BMP280;50159;49.426;11.182;2022-12-07T16:25:29;97473.59;;;3.95
17716;BMP280;50159;49.426;11.182;2022-12-07T16:27:55;97475.25;;;3.96
17716;BMP280;50159;49.426;11.182;2022-12-07T16:30:22;97475.25;;;3.96
17716;BMP280;50159;49.426;11.182;2022-12-07T16:32:49;97474.34;;;3.97